sensor_id;sensor_type;location;lat;lon;timestamp;temperature;humidity
10123;DHT22;5101;49.038;8.710;2022-09-13T00:02:00;16.30;96.80
10123;DHT22;5101;49.038;8.710;2022-09-13T00:04:25;16.30;96.90
10123;DHT22;5101;49.038;8.710;2022-09-13T00:06:51;16.30;96.80
10123;DHT22;5101;49.038;8.710;2022-09-13T00:09:16;16.30;96.80
10123;DHT22;5101;49.038;8.710;2022-09-13T00:11:42;16.20;96.70
10123;DHT22;5101;49.038;8.710;2022-09-13T00:14:08;16.20;96.70
10123;DHT22;5101;49.038;8.710;2022-09-13T00:16:33;16.20;96.90
10123;DHT22;5101;49.038;8.710;2022-09-13T00:18:59;16.20;97.00
10123;DHT22;5101;49.038;8.710;2022-09-13T00:21:25;16.20;97.00
10123;DHT22;5101;49.038;8.710;2022-09-13T00:23:53;16.20;97.00
10123;DHT22;5101;49.038;8.710;2022-09-13T00:26:21;16.20;97.10
10123;DHT22;5101;49.038;8.710;2022-09-13T00:28:52;16.10;97.20
10123;DHT22;5101;49.038;8.710;2022-09-13T00:31:18;16.10;97.40
10123;DHT22;5101;49.038;8.710;2022-09-13T00:33:44;16.10;97.30
10123;DHT22;5101;49.038;8.710;2022-09-13T00:36:10;16.10;97.30
10123;DHT22;5101;49.038;8.710;2022-09-13T00:38:38;16.10;97.40
10123;DHT22;5101;49.038;8.710;2022-09-13T00:41:12;16.10;97.70
10123;DHT22;5101;49.038;8.710;2022-09-13T00:43:54;16.10;97.90
10123;DHT22;5101;49.038;8.710;2022-09-13T00:46:26;16.10;97.90
10123;DHT22;5101;49.038;8.710;2022-09-13T00:48:58;16.10;98.00
10123;DHT22;5101;49.038;8.710;2022-09-13T00:51:26;16.10;97.90
10123;DHT22;5101;49.038;8.710;2022-09-13T00:53:52;16.00;97.80
10123;DHT22;5101;49.038;8.710;2022-09-13T00:56:26;16.00;97.90
10123;DHT22;5101;49.038;8.710;2022-09-13T00:59:03;16.00;98.20
10123;DHT22;5101;49.038;8.710;2022-09-13T01:01:36;16.00;98.30
10123;DHT22;5101;49.038;8.710;2022-09-13T01:04:05;15.90;98.30
10123;DHT22;5101;49.038;8.710;2022-09-13T01:06:33;15.80;98.40
10123;DHT22;5101;49.038;8.710;2022-09-13T01:09:01;15.80;98.50
10123;DHT22;5101;49.038;8.710;2022-09-13T01:11:46;15.80;98.50
10123;DHT22;5101;49.038;8.710;2022-09-13T01:14:16;15.90;99.00
10123;DHT22;5101;49.038;8.710;2022-09-13T01:16:42;15.80;99.00
10123;DHT22;5101;49.038;8.710;2022-09-13T01:19:08;15.90;99.10
10123;DHT22;5101;49.038;8.710;2022-09-13T01:25:13;15.80;99.50
10123;DHT22;5101;49.038;8.710;2022-09-13T01:31:11;15.80;99.30
10123;DHT22;5101;49.038;8.710;2022-09-13T01:37:07;15.70;99.40
10123;DHT22;5101;49.038;8.710;2022-09-13T01:44:58;15.60;99.40
10123;DHT22;5101;49.038;8.710;2022-09-13T01:47:46;15.70;99.60
10123;DHT22;5101;49.038;8.710;2022-09-13T01:50:33;15.60;99.90
10123;DHT22;5101;49.038;8.710;2022-09-13T01:53:17;15.60;99.90
10123;DHT22;5101;49.038;8.710;2022-09-13T02:01:17;15.50;99.90
10123;DHT22;5101;49.038;8.710;2022-09-13T02:03:58;15.50;99.90
10123;DHT22;5101;49.038;8.710;2022-09-13T02:06:41;15.50;99.90
10123;DHT22;5101;49.038;8.710;2022-09-13T02:09:14;15.50;99.90
10123;DHT22;5101;49.038;8.710;2022-09-13T02:11:41;15.50;99.90
10123;DHT22;5101;49.038;8.710;2022-09-13T02:14:13;15.40;99.90
10123;DHT22;5101;49.038;8.710;2022-09-13T02:16:42;15.40;99.90
10123;DHT22;5101;49.038;8.710;2022-09-13T02:19:14;15.40;99.90
10123;DHT22;5101;49.038;8.710;2022-09-13T02:21:43;15.40;99.90
10123;DHT22;5101;49.038;8.710;2022-09-13T02:24:15;15.30;99.90
10123;DHT22;5101;49.038;8.710;2022-09-13T02:26:44;15.40;99.90
10123;DHT22;5101;49.038;8.710;2022-09-13T02:29:14;15.30;99.90
10123;DHT22;5101;49.038;8.710;2022-09-13T02:34:38;15.30;99.90
10123;DHT22;5101;49.038;8.710;2022-09-13T02:37:06;15.30;99.90
10123;DHT22;5101;49.038;8.710;2022-09-13T02:39:36;15.30;99.90
10123;DHT22;5101;49.038;8.710;2022-09-13T02:42:09;15.30;99.90
10123;DHT22;5101;49.038;8.710;2022-09-13T02:44:50;15.30;99.90
10123;DHT22;5101;49.038;8.710;2022-09-13T02:53:24;15.20;99.90
10123;DHT22;5101;49.038;8.710;2022-09-13T02:56:02;15.20;99.90
10123;DHT22;5101;49.038;8.710;2022-09-13T02:58:45;15.20;99.90
10123;DHT22;5101;49.038;8.710;2022-09-13T03:01:13;15.20;99.90
10123;DHT22;5101;49.038;8.710;2022-09-13T03:03:39;15.10;99.90
10123;DHT22;5101;49.038;8.710;2022-09-13T03:06:05;15.10;99.90
10123;DHT22;5101;49.038;8.710;2022-09-13T03:08:31;15.10;99.90
10123;DHT22;5101;49.038;8.710;2022-09-13T03:11:25;15.10;99.90
10123;DHT22;5101;49.038;8.710;2022-09-13T03:30:26;14.90;99.90
10123;DHT22;5101;49.038;8.710;2022-09-13T03:35:25;14.90;99.90
10123;DHT22;5101;49.038;8.710;2022-09-13T03:40:46;14.90;99.90
10123;DHT22;5101;49.038;8.710;2022-09-13T03:43:44;14.90;99.90
10123;DHT22;5101;49.038;8.710;2022-09-13T03:46:16;14.90;99.90
10123;DHT22;5101;49.038;8.710;2022-09-13T03:48:43;14.80;99.90
10123;DHT22;5101;49.038;8.710;2022-09-13T03:51:09;14.80;99.90
10123;DHT22;5101;49.038;8.710;2022-09-13T03:53:44;14.80;99.90
10123;DHT22;5101;49.038;8.710;2022-09-13T03:56:19;14.80;99.90
10123;DHT22;5101;49.038;8.710;2022-09-13T03:58:46;14.80;99.90
10123;DHT22;5101;49.038;8.710;2022-09-13T04:01:12;14.70;99.90
10123;DHT22;5101;49.038;8.710;2022-09-13T04:03:38;14.70;99.90
10123;DHT22;5101;49.038;8.710;2022-09-13T04:06:05;14.70;99.90
10123;DHT22;5101;49.038;8.710;2022-09-13T04:08:32;14.70;99.90
10123;DHT22;5101;49.038;8.710;2022-09-13T04:10:58;14.60;99.90
10123;DHT22;5101;49.038;8.710;2022-09-13T04:13:25;14.70;99.90
10123;DHT22;5101;49.038;8.710;2022-09-13T04:15:51;14.70;99.90
10123;DHT22;5101;49.038;8.710;2022-09-13T04:18:17;14.70;99.90
10123;DHT22;5101;49.038;8.710;2022-09-13T04:20:43;14.70;99.90
10123;DHT22;5101;49.038;8.710;2022-09-13T04:23:09;14.70;99.90
10123;DHT22;5101;49.038;8.710;2022-09-13T04:25:37;14.70;99.90
10123;DHT22;5101;49.038;8.710;2022-09-13T04:28:03;14.70;99.90
10123;DHT22;5101;49.038;8.710;2022-09-13T04:30:29;14.70;99.90
10123;DHT22;5101;49.038;8.710;2022-09-13T04:32:55;14.80;99.90
10123;DHT22;5101;49.038;8.710;2022-09-13T04:35:21;14.80;99.90
10123;DHT22;5101;49.038;8.710;2022-09-13T04:37:46;14.70;99.90
10123;DHT22;5101;49.038;8.710;2022-09-13T04:40:12;14.70;99.90
10123;DHT22;5101;49.038;8.710;2022-09-13T04:42:38;14.70;99.90
10123;DHT22;5101;49.038;8.710;2022-09-13T04:45:04;14.80;99.90
10123;DHT22;5101;49.038;8.710;2022-09-13T04:47:31;14.80;99.90
10123;DHT22;5101;49.038;8.710;2022-09-13T04:49:56;14.80;99.90
10123;DHT22;5101;49.038;8.710;2022-09-13T04:52:22;14.80;99.90
10123;DHT22;5101;49.038;8.710;2022-09-13T04:54:48;14.80;99.90
10123;DHT22;5101;49.038;8.710;2022-09-13T04:57:14;14.80;99.90
10123;DHT22;5101;49.038;8.710;2022-09-13T04:59:41;14.80;99.90
10123;DHT22;5101;49.038;8.710;2022-09-13T05:02:07;14.90;99.90
10123;DHT22;5101;49.038;8.710;2022-09-13T05:04:33;14.80;99.90
10123;DHT22;5101;49.038;8.710;2022-09-13T05:06:59;14.80;99.90
10123;DHT22;5101;49.038;8.710;2022-09-13T05:09:24;14.90;99.90
10123;DHT22;5101;49.038;8.710;2022-09-13T05:11:50;14.90;99.90
10123;DHT22;5101;49.038;8.710;2022-09-13T05:14:16;14.80;99.90
10123;DHT22;5101;49.038;8.710;2022-09-13T05:16:41;14.80;99.90
10123;DHT22;5101;49.038;8.710;2022-09-13T05:19:08;14.80;99.90
10123;DHT22;5101;49.038;8.710;2022-09-13T05:21:34;14.90;99.90
10123;DHT22;5101;49.038;8.710;2022-09-13T05:24:00;14.90;99.90
10123;DHT22;5101;49.038;8.710;2022-09-13T05:26:28;14.90;99.90
10123;DHT22;5101;49.038;8.710;2022-09-13T05:28:56;14.90;99.90
10123;DHT22;5101;49.038;8.710;2022-09-13T05:31:24;14.90;99.90
10123;DHT22;5101;49.038;8.710;2022-09-13T05:33:56;14.90;99.90
10123;DHT22;5101;49.038;8.710;2022-09-13T05:36:23;14.90;99.90
10123;DHT22;5101;49.038;8.710;2022-09-13T05:38:50;14.90;99.90
10123;DHT22;5101;49.038;8.710;2022-09-13T05:41:16;15.00;99.90
10123;DHT22;5101;49.038;8.710;2022-09-13T05:43:42;14.90;99.90
10123;DHT22;5101;49.038;8.710;2022-09-13T05:46:12;14.90;99.90
10123;DHT22;5101;49.038;8.710;2022-09-13T05:48:39;15.00;99.90
10123;DHT22;5101;49.038;8.710;2022-09-13T05:51:07;15.00;99.90
10123;DHT22;5101;49.038;8.710;2022-09-13T05:53:35;15.10;99.90
10123;DHT22;5101;49.038;8.710;2022-09-13T05:56:02;15.10;99.90
10123;DHT22;5101;49.038;8.710;2022-09-13T05:58:28;15.20;99.90
10123;DHT22;5101;49.038;8.710;2022-09-13T06:00:54;15.20;99.90
10123;DHT22;5101;49.038;8.710;2022-09-13T06:03:21;15.20;99.90
10123;DHT22;5101;49.038;8.710;2022-09-13T06:05:47;15.30;99.90
10123;DHT22;5101;49.038;8.710;2022-09-13T06:08:12;15.30;99.90
10123;DHT22;5101;49.038;8.710;2022-09-13T06:10:38;15.30;99.90
10123;DHT22;5101;49.038;8.710;2022-09-13T06:13:04;15.40;99.90
10123;DHT22;5101;49.038;8.710;2022-09-13T06:15:29;15.40;99.90
10123;DHT22;5101;49.038;8.710;2022-09-13T06:17:55;15.50;99.90
10123;DHT22;5101;49.038;8.710;2022-09-13T06:20:20;15.50;99.90
10123;DHT22;5101;49.038;8.710;2022-09-13T06:22:49;15.50;99.90
10123;DHT22;5101;49.038;8.710;2022-09-13T06:25:15;15.60;99.90
10123;DHT22;5101;49.038;8.710;2022-09-13T06:27:41;15.70;99.90
10123;DHT22;5101;49.038;8.710;2022-09-13T06:30:07;15.80;99.90
10123;DHT22;5101;49.038;8.710;2022-09-13T06:32:34;15.80;99.90
10123;DHT22;5101;49.038;8.710;2022-09-13T06:34:59;15.90;99.90
10123;DHT22;5101;49.038;8.710;2022-09-13T06:37:25;16.00;99.90
10123;DHT22;5101;49.038;8.710;2022-09-13T06:39:51;16.00;99.90
10123;DHT22;5101;49.038;8.710;2022-09-13T06:42:17;16.10;99.90
10123;DHT22;5101;49.038;8.710;2022-09-13T06:44:42;16.10;99.90
10123;DHT22;5101;49.038;8.710;2022-09-13T06:47:10;16.20;99.90
10123;DHT22;5101;49.038;8.710;2022-09-13T06:49:37;16.20;99.90
10123;DHT22;5101;49.038;8.710;2022-09-13T06:52:02;16.30;99.90
10123;DHT22;5101;49.038;8.710;2022-09-13T06:54:28;16.30;99.90
10123;DHT22;5101;49.038;8.710;2022-09-13T06:56:53;16.40;99.90
10123;DHT22;5101;49.038;8.710;2022-09-13T06:59:19;16.50;99.90
10123;DHT22;5101;49.038;8.710;2022-09-13T07:01:45;16.60;99.90
10123;DHT22;5101;49.038;8.710;2022-09-13T07:04:14;16.70;99.90
10123;DHT22;5101;49.038;8.710;2022-09-13T07:06:42;16.80;99.90
10123;DHT22;5101;49.038;8.710;2022-09-13T07:09:18;16.90;99.90
10123;DHT22;5101;49.038;8.710;2022-09-13T07:11:44;17.00;99.90
10123;DHT22;5101;49.038;8.710;2022-09-13T07:14:16;17.20;99.90
10123;DHT22;5101;49.038;8.710;2022-09-13T07:16:43;17.40;99.90
10123;DHT22;5101;49.038;8.710;2022-09-13T07:19:15;17.60;99.90
10123;DHT22;5101;49.038;8.710;2022-09-13T07:21:41;17.70;99.90
10123;DHT22;5101;49.038;8.710;2022-09-13T07:24:08;17.90;99.90
10123;DHT22;5101;49.038;8.710;2022-09-13T07:26:34;18.00;99.90
10123;DHT22;5101;49.038;8.710;2022-09-13T07:29:05;18.10;99.90
10123;DHT22;5101;49.038;8.710;2022-09-13T07:31:36;18.20;99.60
10123;DHT22;5101;49.038;8.710;2022-09-13T07:34:09;18.30;99.50
10123;DHT22;5101;49.038;8.710;2022-09-13T07:36:36;18.40;99.10
10123;DHT22;5101;49.038;8.710;2022-09-13T07:39:02;18.50;98.90
10123;DHT22;5101;49.038;8.710;2022-09-13T07:41:29;18.60;98.80
10123;DHT22;5101;49.038;8.710;2022-09-13T07:43:56;18.70;98.80
10123;DHT22;5101;49.038;8.710;2022-09-13T07:46:26;18.70;98.50
10123;DHT22;5101;49.038;8.710;2022-09-13T07:48:54;18.80;98.00
10123;DHT22;5101;49.038;8.710;2022-09-13T07:51:22;18.90;97.80
10123;DHT22;5101;49.038;8.710;2022-09-13T07:53:49;19.00;97.70
10123;DHT22;5101;49.038;8.710;2022-09-13T07:56:17;19.00;97.20
10123;DHT22;5101;49.038;8.710;2022-09-13T07:58:44;19.10;96.70
10123;DHT22;5101;49.038;8.710;2022-09-13T08:01:16;19.20;96.60
10123;DHT22;5101;49.038;8.710;2022-09-13T08:03:44;19.20;96.30
10123;DHT22;5101;49.038;8.710;2022-09-13T08:06:14;19.30;96.30
10123;DHT22;5101;49.038;8.710;2022-09-13T08:08:39;19.40;96.20
10123;DHT22;5101;49.038;8.710;2022-09-13T08:11:06;19.40;95.70
10123;DHT22;5101;49.038;8.710;2022-09-13T08:13:32;19.50;95.20
10123;DHT22;5101;49.038;8.710;2022-09-13T08:16:05;19.70;94.90
10123;DHT22;5101;49.038;8.710;2022-09-13T08:18:31;19.70;94.50
10123;DHT22;5101;49.038;8.710;2022-09-13T08:20:57;19.70;94.50
10123;DHT22;5101;49.038;8.710;2022-09-13T08:23:24;19.70;94.60
10123;DHT22;5101;49.038;8.710;2022-09-13T08:25:50;19.70;94.70
10123;DHT22;5101;49.038;8.710;2022-09-13T08:28:17;19.80;94.70
10123;DHT22;5101;49.038;8.710;2022-09-13T08:30:43;20.00;94.40
10123;DHT22;5101;49.038;8.710;2022-09-13T08:33:10;20.20;94.10
10123;DHT22;5101;49.038;8.710;2022-09-13T08:35:36;20.30;93.80
10123;DHT22;5101;49.038;8.710;2022-09-13T08:38:03;20.60;93.60
10123;DHT22;5101;49.038;8.710;2022-09-13T08:40:32;20.80;93.00
10123;DHT22;5101;49.038;8.710;2022-09-13T08:48:32;21.70;91.60
10123;DHT22;5101;49.038;8.710;2022-09-13T08:51:03;22.20;90.70
10123;DHT22;5101;49.038;8.710;2022-09-13T08:53:42;22.50;88.60
10123;DHT22;5101;49.038;8.710;2022-09-13T08:56:12;22.90;87.10
10123;DHT22;5101;49.038;8.710;2022-09-13T09:03:50;23.80;81.70
10123;DHT22;5101;49.038;8.710;2022-09-13T09:06:18;23.90;80.50
10123;DHT22;5101;49.038;8.710;2022-09-13T09:08:56;24.10;79.80
10123;DHT22;5101;49.038;8.710;2022-09-13T09:11:31;24.20;78.20
10123;DHT22;5101;49.038;8.710;2022-09-13T09:19:02;24.50;76.40
10123;DHT22;5101;49.038;8.710;2022-09-13T09:21:30;24.50;75.90
10123;DHT22;5101;49.038;8.710;2022-09-13T09:24:00;24.70;74.80
10123;DHT22;5101;49.038;8.710;2022-09-13T09:26:29;24.60;73.40
10123;DHT22;5101;49.038;8.710;2022-09-13T09:29:16;24.70;73.30
10123;DHT22;5101;49.038;8.710;2022-09-13T09:39:31;26.20;66.90
10123;DHT22;5101;49.038;8.710;2022-09-13T09:41:58;26.40;67.10
10123;DHT22;5101;49.038;8.710;2022-09-13T09:44:28;26.70;65.00
10123;DHT22;5101;49.038;8.710;2022-09-13T09:47:10;26.90;63.60
10123;DHT22;5101;49.038;8.710;2022-09-13T09:49:40;27.20;63.70
10123;DHT22;5101;49.038;8.710;2022-09-13T09:52:31;27.50;62.80
10123;DHT22;5101;49.038;8.710;2022-09-13T09:58:03;27.90;61.10
10123;DHT22;5101;49.038;8.710;2022-09-13T10:00:32;28.10;60.10
10123;DHT22;5101;49.038;8.710;2022-09-13T10:03:05;28.30;57.60
10123;DHT22;5101;49.038;8.710;2022-09-13T10:05:34;28.30;52.70
10123;DHT22;5101;49.038;8.710;2022-09-13T10:08:06;28.20;50.90
10123;DHT22;5101;49.038;8.710;2022-09-13T10:12:59;28.30;49.90
10123;DHT22;5101;49.038;8.710;2022-09-13T10:15:29;28.40;49.80
10123;DHT22;5101;49.038;8.710;2022-09-13T10:18:05;28.60;49.10
10123;DHT22;5101;49.038;8.710;2022-09-13T10:20:32;28.80;48.30
10123;DHT22;5101;49.038;8.710;2022-09-13T10:23:17;28.90;48.30
10123;DHT22;5101;49.038;8.710;2022-09-13T10:26:04;29.00;46.90
10123;DHT22;5101;49.038;8.710;2022-09-13T10:29:21;29.20;46.80
10123;DHT22;5101;49.038;8.710;2022-09-13T10:31:27;28.90;44.90
10123;DHT22;5101;49.038;8.710;2022-09-13T10:39:19;29.30;44.60
10123;DHT22;5101;49.038;8.710;2022-09-13T10:47:11;29.70;43.60
10123;DHT22;5101;49.038;8.710;2022-09-13T10:57:40;29.90;42.60
10123;DHT22;5101;49.038;8.710;2022-09-13T11:00:06;29.80;42.70
10123;DHT22;5101;49.038;8.710;2022-09-13T11:05:43;29.40;41.20
10123;DHT22;5101;49.038;8.710;2022-09-13T11:24:51;29.40;43.50
10123;DHT22;5101;49.038;8.710;2022-09-13T11:30:24;29.40;43.90
10123;DHT22;5101;49.038;8.710;2022-09-13T11:33:02;29.30;44.20
10123;DHT22;5101;49.038;8.710;2022-09-13T11:53:10;28.60;42.40
10123;DHT22;5101;49.038;8.710;2022-09-13T11:58:13;28.70;43.70
10123;DHT22;5101;49.038;8.710;2022-09-13T12:00:47;28.90;44.10
10123;DHT22;5101;49.038;8.710;2022-09-13T12:06:02;28.70;43.80
10123;DHT22;5101;49.038;8.710;2022-09-13T12:08:48;28.70;43.70
10123;DHT22;5101;49.038;8.710;2022-09-13T12:11:20;28.50;44.60
10123;DHT22;5101;49.038;8.710;2022-09-13T12:13:56;28.10;45.10
10123;DHT22;5101;49.038;8.710;2022-09-13T12:16:29;27.90;45.80
10123;DHT22;5101;49.038;8.710;2022-09-13T12:19:13;28.00;46.60
10123;DHT22;5101;49.038;8.710;2022-09-13T12:21:40;28.10;48.00
10123;DHT22;5101;49.038;8.710;2022-09-13T12:27:08;28.30;48.00
10123;DHT22;5101;49.038;8.710;2022-09-13T12:29:50;28.30;47.50
10123;DHT22;5101;49.038;8.710;2022-09-13T12:32:18;28.60;46.70
10123;DHT22;5101;49.038;8.710;2022-09-13T12:35:07;28.60;44.70
10123;DHT22;5101;49.038;8.710;2022-09-13T12:56:39;29.30;42.60
10123;DHT22;5101;49.038;8.710;2022-09-13T13:01:48;29.30;42.40
10123;DHT22;5101;49.038;8.710;2022-09-13T13:04:16;29.20;42.20
10123;DHT22;5101;49.038;8.710;2022-09-13T13:06:52;29.20;42.00
10123;DHT22;5101;49.038;8.710;2022-09-13T13:09:41;29.20;42.10
10123;DHT22;5101;49.038;8.710;2022-09-13T13:14:53;29.20;42.80
10123;DHT22;5101;49.038;8.710;2022-09-13T13:20:38;29.30;43.10
10123;DHT22;5101;49.038;8.710;2022-09-13T13:34:00;29.50;42.70
10123;DHT22;5101;49.038;8.710;2022-09-13T13:36:46;29.60;42.50
10123;DHT22;5101;49.038;8.710;2022-09-13T13:41:55;29.60;41.20
10123;DHT22;5101;49.038;8.710;2022-09-13T13:47:40;29.60;40.70
10123;DHT22;5101;49.038;8.710;2022-09-13T13:57:23;29.80;40.10
10123;DHT22;5101;49.038;8.710;2022-09-13T14:02:33;29.70;39.70
10123;DHT22;5101;49.038;8.710;2022-09-13T14:05:15;29.70;38.80
10123;DHT22;5101;49.038;8.710;2022-09-13T14:11:02;29.50;38.60
10123;DHT22;5101;49.038;8.710;2022-09-13T14:22:04;29.50;38.10
10123;DHT22;5101;49.038;8.710;2022-09-13T14:24:36;29.20;37.60
10123;DHT22;5101;49.038;8.710;2022-09-13T14:27:02;29.30;37.80
10123;DHT22;5101;49.038;8.710;2022-09-13T14:29:28;29.10;37.80
10123;DHT22;5101;49.038;8.710;2022-09-13T14:32:01;29.00;37.60
10123;DHT22;5101;49.038;8.710;2022-09-13T14:34:34;29.00;37.80
10123;DHT22;5101;49.038;8.710;2022-09-13T14:37:05;29.10;37.70
10123;DHT22;5101;49.038;8.710;2022-09-13T14:39:32;29.20;37.60
10123;DHT22;5101;49.038;8.710;2022-09-13T14:42:10;29.30;37.50
10123;DHT22;5101;49.038;8.710;2022-09-13T14:44:37;29.30;37.10
10123;DHT22;5101;49.038;8.710;2022-09-13T14:50:07;29.40;37.00
10123;DHT22;5101;49.038;8.710;2022-09-13T14:52:53;29.40;37.20
10123;DHT22;5101;49.038;8.710;2022-09-13T14:55:24;29.40;36.80
10123;DHT22;5101;49.038;8.710;2022-09-13T14:57:55;29.50;36.60
10123;DHT22;5101;49.038;8.710;2022-09-13T15:00:23;29.40;36.40
10123;DHT22;5101;49.038;8.710;2022-09-13T15:02:51;29.50;36.70
10123;DHT22;5101;49.038;8.710;2022-09-13T15:05:20;29.50;36.90
10123;DHT22;5101;49.038;8.710;2022-09-13T15:07:46;29.60;37.20
10123;DHT22;5101;49.038;8.710;2022-09-13T15:10:24;29.70;38.20
10123;DHT22;5101;49.038;8.710;2022-09-13T15:15:30;29.70;37.40
10123;DHT22;5101;49.038;8.710;2022-09-13T15:23:33;29.80;38.80
10123;DHT22;5101;49.038;8.710;2022-09-13T15:26:09;29.80;39.40
10123;DHT22;5101;49.038;8.710;2022-09-13T15:31:24;29.70;37.30
10123;DHT22;5101;49.038;8.710;2022-09-13T15:34:21;29.70;37.80
10123;DHT22;5101;49.038;8.710;2022-09-13T15:39:27;29.60;37.20
10123;DHT22;5101;49.038;8.710;2022-09-13T15:41:54;29.60;37.00
10123;DHT22;5101;49.038;8.710;2022-09-13T15:44:21;29.60;36.30
10123;DHT22;5101;49.038;8.710;2022-09-13T15:46:52;29.60;36.10
10123;DHT22;5101;49.038;8.710;2022-09-13T15:49:23;29.60;35.90
10123;DHT22;5101;49.038;8.710;2022-09-13T15:52:04;29.50;36.00
10123;DHT22;5101;49.038;8.710;2022-09-13T15:54:40;29.40;36.00
10123;DHT22;5101;49.038;8.710;2022-09-13T15:57:27;29.30;36.20
10123;DHT22;5101;49.038;8.710;2022-09-13T15:59:53;29.20;36.60
10123;DHT22;5101;49.038;8.710;2022-09-13T16:02:25;29.00;36.50
10123;DHT22;5101;49.038;8.710;2022-09-13T16:04:53;28.90;36.00
10123;DHT22;5101;49.038;8.710;2022-09-13T16:07:19;28.80;36.00
10123;DHT22;5101;49.038;8.710;2022-09-13T16:09:45;28.80;36.20
10123;DHT22;5101;49.038;8.710;2022-09-13T16:12:11;28.80;36.40
10123;DHT22;5101;49.038;8.710;2022-09-13T16:14:36;28.80;36.90
10123;DHT22;5101;49.038;8.710;2022-09-13T16:17:05;28.70;37.20
10123;DHT22;5101;49.038;8.710;2022-09-13T16:19:32;28.70;37.70
10123;DHT22;5101;49.038;8.710;2022-09-13T16:21:57;28.70;37.50
10123;DHT22;5101;49.038;8.710;2022-09-13T16:24:23;28.60;37.40
10123;DHT22;5101;49.038;8.710;2022-09-13T16:26:49;28.60;36.90
10123;DHT22;5101;49.038;8.710;2022-09-13T16:29:14;28.50;37.80
10123;DHT22;5101;49.038;8.710;2022-09-13T16:31:40;28.40;37.40
10123;DHT22;5101;49.038;8.710;2022-09-13T16:34:06;28.40;37.30
10123;DHT22;5101;49.038;8.710;2022-09-13T16:36:31;28.30;38.40
10123;DHT22;5101;49.038;8.710;2022-09-13T16:38:58;28.30;39.20
10123;DHT22;5101;49.038;8.710;2022-09-13T16:41:24;28.30;39.40
10123;DHT22;5101;49.038;8.710;2022-09-13T16:43:50;28.30;39.70
10123;DHT22;5101;49.038;8.710;2022-09-13T16:46:16;28.20;39.60
10123;DHT22;5101;49.038;8.710;2022-09-13T16:48:42;28.20;39.30
10123;DHT22;5101;49.038;8.710;2022-09-13T16:51:09;28.00;39.00
10123;DHT22;5101;49.038;8.710;2022-09-13T16:53:37;28.00;39.30
10123;DHT22;5101;49.038;8.710;2022-09-13T16:56:08;27.90;39.80
10123;DHT22;5101;49.038;8.710;2022-09-13T16:58:36;27.90;40.60
10123;DHT22;5101;49.038;8.710;2022-09-13T17:01:07;27.80;41.70
10123;DHT22;5101;49.038;8.710;2022-09-13T17:03:33;27.80;43.60
10123;DHT22;5101;49.038;8.710;2022-09-13T17:06:12;27.70;44.30
10123;DHT22;5101;49.038;8.710;2022-09-13T17:08:39;27.60;46.60
10123;DHT22;5101;49.038;8.710;2022-09-13T17:11:16;27.50;48.50
10123;DHT22;5101;49.038;8.710;2022-09-13T17:13:42;27.50;48.90
10123;DHT22;5101;49.038;8.710;2022-09-13T17:16:26;27.40;48.90
10123;DHT22;5101;49.038;8.710;2022-09-13T17:18:52;27.20;49.10
10123;DHT22;5101;49.038;8.710;2022-09-13T17:21:18;27.10;48.60
10123;DHT22;5101;49.038;8.710;2022-09-13T17:23:44;27.10;49.00
10123;DHT22;5101;49.038;8.710;2022-09-13T17:26:10;27.00;49.50
10123;DHT22;5101;49.038;8.710;2022-09-13T17:28:36;27.00;49.70
10123;DHT22;5101;49.038;8.710;2022-09-13T17:31:02;26.90;49.90
10123;DHT22;5101;49.038;8.710;2022-09-13T17:33:28;26.80;50.20
10123;DHT22;5101;49.038;8.710;2022-09-13T17:36:01;26.70;50.10
10123;DHT22;5101;49.038;8.710;2022-09-13T17:38:27;26.50;50.40
10123;DHT22;5101;49.038;8.710;2022-09-13T17:41:07;26.40;50.90
10123;DHT22;5101;49.038;8.710;2022-09-13T17:43:34;26.30;53.80
10123;DHT22;5101;49.038;8.710;2022-09-13T17:46:17;26.30;54.30
10123;DHT22;5101;49.038;8.710;2022-09-13T17:48:45;26.20;54.60
10123;DHT22;5101;49.038;8.710;2022-09-13T17:51:21;26.10;53.60
10123;DHT22;5101;49.038;8.710;2022-09-13T17:53:49;26.00;54.30
10123;DHT22;5101;49.038;8.710;2022-09-13T17:56:17;25.80;54.00
10123;DHT22;5101;49.038;8.710;2022-09-13T17:58:43;25.70;54.40
10123;DHT22;5101;49.038;8.710;2022-09-13T18:01:09;25.70;54.80
10123;DHT22;5101;49.038;8.710;2022-09-13T18:03:35;25.60;54.80
10123;DHT22;5101;49.038;8.710;2022-09-13T18:06:04;25.60;55.30
10123;DHT22;5101;49.038;8.710;2022-09-13T18:08:31;25.60;56.10
10123;DHT22;5101;49.038;8.710;2022-09-13T18:11:02;25.50;57.50
10123;DHT22;5101;49.038;8.710;2022-09-13T18:13:28;25.40;59.00
10123;DHT22;5101;49.038;8.710;2022-09-13T18:16:23;25.30;59.20
10123;DHT22;5101;49.038;8.710;2022-09-13T18:18:48;25.30;59.30
10123;DHT22;5101;49.038;8.710;2022-09-13T18:21:15;25.20;59.10
10123;DHT22;5101;49.038;8.710;2022-09-13T18:23:44;25.10;60.60
10123;DHT22;5101;49.038;8.710;2022-09-13T18:26:12;25.10;62.40
10123;DHT22;5101;49.038;8.710;2022-09-13T18:28:38;25.00;63.10
10123;DHT22;5101;49.038;8.710;2022-09-13T18:31:06;24.90;63.30
10123;DHT22;5101;49.038;8.710;2022-09-13T18:33:36;24.80;63.60
10123;DHT22;5101;49.038;8.710;2022-09-13T18:36:04;24.70;64.50
10123;DHT22;5101;49.038;8.710;2022-09-13T18:38:33;24.70;66.30
10123;DHT22;5101;49.038;8.710;2022-09-13T18:41:03;24.60;67.70
10123;DHT22;5101;49.038;8.710;2022-09-13T18:43:30;24.50;68.30
10123;DHT22;5101;49.038;8.710;2022-09-13T18:46:00;24.50;68.10
10123;DHT22;5101;49.038;8.710;2022-09-13T18:48:30;24.30;68.10
10123;DHT22;5101;49.038;8.710;2022-09-13T18:50:57;24.30;68.40
10123;DHT22;5101;49.038;8.710;2022-09-13T18:53:23;24.20;68.70
10123;DHT22;5101;49.038;8.710;2022-09-13T18:55:49;24.10;70.20
10123;DHT22;5101;49.038;8.710;2022-09-13T18:58:14;24.10;70.20
10123;DHT22;5101;49.038;8.710;2022-09-13T19:00:40;24.00;70.40
10123;DHT22;5101;49.038;8.710;2022-09-13T19:03:08;24.00;70.90
10123;DHT22;5101;49.038;8.710;2022-09-13T19:05:35;23.80;71.50
10123;DHT22;5101;49.038;8.710;2022-09-13T19:08:08;23.80;72.80
10123;DHT22;5101;49.038;8.710;2022-09-13T19:10:37;23.70;73.50
10123;DHT22;5101;49.038;8.710;2022-09-13T19:13:03;23.60;73.60
10123;DHT22;5101;49.038;8.710;2022-09-13T19:15:29;23.50;74.10
10123;DHT22;5101;49.038;8.710;2022-09-13T19:17:55;23.40;75.70
10123;DHT22;5101;49.038;8.710;2022-09-13T19:20:21;23.40;75.70
10123;DHT22;5101;49.038;8.710;2022-09-13T19:22:47;23.30;75.90
10123;DHT22;5101;49.038;8.710;2022-09-13T19:25:14;23.20;76.60
10123;DHT22;5101;49.038;8.710;2022-09-13T19:27:40;23.20;76.80
10123;DHT22;5101;49.038;8.710;2022-09-13T19:30:06;23.10;77.00
10123;DHT22;5101;49.038;8.710;2022-09-13T19:32:32;23.10;77.90
10123;DHT22;5101;49.038;8.710;2022-09-13T19:34:58;23.00;78.60
10123;DHT22;5101;49.038;8.710;2022-09-13T19:37:23;23.00;79.50
10123;DHT22;5101;49.038;8.710;2022-09-13T19:39:49;22.90;79.90
10123;DHT22;5101;49.038;8.710;2022-09-13T19:42:15;22.80;81.00
10123;DHT22;5101;49.038;8.710;2022-09-13T19:44:41;22.80;82.10
10123;DHT22;5101;49.038;8.710;2022-09-13T19:47:06;22.70;82.50
10123;DHT22;5101;49.038;8.710;2022-09-13T19:49:33;22.70;82.80
10123;DHT22;5101;49.038;8.710;2022-09-13T19:51:59;22.60;83.20